Time;durP1;ratioP1;P1;durP2;ratioP2;P2;SDS_P1;SDS_P2;PMS_P1;PMS_P2;Temp;Humidity;BMP_temperature;BMP_pressure;BME280_temperature;BME280_humidity;BME280_pressure;Samples;Min_cycle;Max_cycle;Signal;HPM_P1;HPM_P2
2023/11/07 00:02:21;;;;;;;3.78;1.17;;;17.50;53.50;;;;;;5053027;28;20346;-58
2023/11/07 00:04:48;;;;;;;5.70;1.50;;;17.50;53.50;;;;;;5055943;28;20249;-60
2023/11/07 00:07:15;;;;;;;2.58;1.17;;;17.50;53.50;;;;;;5055753;28;20309;-59
2023/11/07 00:09:44;;;;;;;4.30;1.17;;;17.60;53.60;;;;;;5055230;28;20192;-60
2023/11/07 00:12:11;;;;;;;3.58;1.20;;;17.60;53.60;;;;;;5055579;28;20220;-60
2023/11/07 00:14:38;;;;;;;2.83;1.48;;;17.50;53.50;;;;;;5055483;28;20215;-60
2023/11/07 00:17:05;;;;;;;3.10;1.23;;;17.50;53.50;;;;;;5054737;28;20689;-57
2023/11/07 00:19:32;;;;;;;2.67;1.35;;;17.50;53.50;;;;;;5055489;28;20184;-58
2023/11/07 00:21:59;;;;;;;1.92;0.98;;;17.50;53.50;;;;;;5055302;28;20635;-58
2023/11/07 00:24:26;;;;;;;4.72;1.00;;;17.50;53.50;;;;;;5055051;28;20195;-59
2023/11/07 00:26:54;;;;;;;2.60;1.30;;;17.50;54.10;;;;;;5055308;28;20280;-58
2023/11/07 00:29:23;;;;;;;3.30;1.02;;;17.50;53.50;;;;;;5054947;28;20568;-60
2023/11/07 00:31:51;;;;;;;3.75;1.30;;;17.50;53.50;;;;;;5054770;28;20227;-58
2023/11/07 00:34:18;;;;;;;3.20;1.00;;;17.50;53.50;;;;;;5055042;28;20251;-60
2023/11/07 00:36:46;;;;;;;3.35;1.20;;;17.50;53.50;;;;;;5055127;28;20270;-60
2023/11/07 00:39:14;;;;;;;5.10;1.40;;;17.50;53.50;;;;;;5054366;28;20278;-60
2023/11/07 00:41:41;;;;;;;3.10;1.42;;;17.50;53.40;;;;;;5054748;28;20194;-59
2023/11/07 00:44:09;;;;;;;3.38;1.20;;;17.50;53.40;;;;;;5055025;28;20198;-60
2023/11/07 00:46:36;;;;;;;3.63;1.02;;;17.50;53.40;;;;;;5054424;28;20196;-59
2023/11/07 00:49:04;;;;;;;2.72;1.27;;;17.50;53.40;;;;;;5054856;28;20184;-57
2023/11/07 00:51:31;;;;;;;2.30;1.15;;;17.50;53.40;;;;;;5054810;28;20238;-59
2023/11/07 00:53:58;;;;;;;2.70;1.20;;;17.50;53.40;;;;;;5054047;28;20719;-60
2023/11/07 00:56:25;;;;;;;4.15;1.17;;;17.50;53.30;;;;;;5054750;28;20274;-59
2023/11/07 00:58:52;;;;;;;3.28;1.15;;;17.50;53.40;;;;;;5054666;28;20322;-60
2023/11/07 01:01:20;;;;;;;3.10;1.20;;;17.50;53.30;;;;;;5054191;28;20279;-59
2023/11/07 01:03:47;;;;;;;3.00;1.20;;;17.50;53.30;;;;;;5054580;28;20254;-59
2023/11/07 01:06:14;;;;;;;2.65;1.00;;;17.50;53.30;;;;;;5054869;28;20202;-58
2023/11/07 01:08:41;;;;;;;2.65;1.10;;;17.40;53.20;;;;;;5054370;28;20222;-57
2023/11/07 01:11:08;;;;;;;2.55;1.17;;;17.40;53.10;;;;;;5054558;28;20192;-59
2023/11/07 01:13:35;;;;;;;2.95;1.02;;;17.40;53.10;;;;;;5053789;28;20230;-60
2023/11/07 01:16:04;;;;;;;2.75;1.00;;;17.40;53.10;;;;;;5054030;28;20234;-60
2023/11/07 01:18:32;;;;;;;2.58;1.23;;;17.40;53.10;;;;;;5053963;28;20353;-60
2023/11/07 01:20:59;;;;;;;2.72;1.08;;;17.40;53.10;;;;;;5054258;28;20194;-60
2023/11/07 01:23:26;;;;;;;3.85;1.00;;;17.40;53.10;;;;;;5054059;28;20222;-60
2023/11/07 01:25:53;;;;;;;4.82;1.40;;;17.40;53.10;;;;;;5054260;28;20190;-60
2023/11/07 01:28:21;;;;;;;3.67;1.05;;;17.40;53.10;;;;;;5053957;28;20753;-57
2023/11/07 01:30:49;;;;;;;2.88;1.17;;;17.40;53.10;;;;;;5053864;28;20192;-58
2023/11/07 01:33:16;;;;;;;2.67;1.20;;;17.40;53.10;;;;;;5053638;28;20598;-60
2023/11/07 01:35:44;;;;;;;2.28;1.00;;;17.40;53.10;;;;;;5053637;28;20314;-56
2023/11/07 01:38:11;;;;;;;3.20;1.38;;;17.40;53.10;;;;;;5053749;28;20211;-57
2023/11/07 01:40:38;;;;;;;2.40;1.02;;;17.40;53.10;;;;;;5053608;28;20674;-59
2023/11/07 01:43:13;;;;;;;2.47;1.00;;;17.40;53.10;;;;;;5053968;28;20219;-58
2023/11/07 01:45:40;;;;;;;2.40;1.10;;;17.40;53.10;;;;;;5053462;28;20187;-60
2023/11/07 01:48:09;;;;;;;4.20;1.02;;;17.40;53.10;;;;;;5053378;28;20212;-57
2023/11/07 01:50:37;;;;;;;3.17;0.90;;;17.40;53.10;;;;;;5053741;28;20192;-59
2023/11/07 01:53:06;;;;;;;3.70;1.15;;;17.40;53.00;;;;;;5053083;28;20219;-59
2023/11/07 01:55:34;;;;;;;3.90;1.13;;;17.40;53.00;;;;;;5053239;28;20595;-58
2023/11/07 01:58:02;;;;;;;3.85;1.23;;;17.40;53.00;;;;;;5053701;28;20222;-59
2023/11/07 02:00:29;;;;;;;2.92;1.10;;;17.40;53.00;;;;;;5053197;28;20200;-60
2023/11/07 02:02:57;;;;;;;2.95;1.08;;;17.40;53.00;;;;;;5053025;28;20318;-59
2023/11/07 02:05:25;;;;;;;4.45;1.35;;;17.40;53.00;;;;;;5053722;28;20294;-60
2023/11/07 02:07:51;;;;;;;3.72;1.30;;;17.40;53.00;;;;;;5053119;28;20304;-60
2023/11/07 02:10:21;;;;;;;2.65;1.10;;;17.40;53.10;;;;;;5053276;28;20219;-60
2023/11/07 02:12:48;;;;;;;2.25;1.00;;;17.40;53.00;;;;;;5053042;28;20590;-57
2023/11/07 02:15:20;;;;;;;2.33;1.30;;;17.40;53.00;;;;;;5052808;28;20262;-60
2023/11/07 02:17:46;;;;;;;2.35;1.13;;;17.40;53.00;;;;;;5052782;28;20715;-58
2023/11/07 02:20:14;;;;;;;2.85;0.93;;;17.40;53.00;;;;;;5053190;28;20188;-59
2023/11/07 02:22:43;;;;;;;4.75;1.20;;;17.40;53.00;;;;;;5052745;28;20223;-58
2023/11/07 02:25:13;;;;;;;4.13;1.20;;;17.40;53.10;;;;;;5052335;28;20269;-57
2023/11/07 02:27:40;;;;;;;3.90;1.10;;;17.40;53.10;;;;;;5052797;28;20693;-58
2023/11/07 02:30:12;;;;;;;2.53;1.08;;;17.40;53.00;;;;;;5052674;28;20195;-57
2023/11/07 02:32:40;;;;;;;8.27;1.45;;;17.40;53.00;;;;;;5052517;28;20220;-60
2023/11/07 02:35:08;;;;;;;5.03;1.20;;;17.40;53.00;;;;;;5052900;28;20222;-59
2023/11/07 02:37:35;;;;;;;3.88;0.98;;;17.40;53.00;;;;;;5052524;28;20302;-60
2023/11/07 02:40:04;;;;;;;3.05;1.02;;;17.40;53.00;;;;;;5052822;28;20194;-57
2023/11/07 02:42:33;;;;;;;2.38;1.17;;;17.30;52.80;;;;;;5052700;28;20237;-59
2023/11/07 02:45:00;;;;;;;3.42;1.30;;;17.40;52.90;;;;;;5052027;28;20646;-60
2023/11/07 02:47:27;;;;;;;2.53;1.27;;;17.40;52.90;;;;;;5052353;28;20641;-59
2023/11/07 02:49:53;;;;;;;2.97;1.13;;;17.30;52.90;;;;;;5052706;28;20275;-60
2023/11/07 02:52:21;;;;;;;3.25;1.20;;;17.30;52.90;;;;;;5052221;28;20648;-58
2023/11/07 02:54:48;;;;;;;3.70;1.10;;;17.30;52.80;;;;;;5052549;28;20226;-59
2023/11/07 02:57:15;;;;;;;2.20;1.00;;;17.30;52.80;;;;;;5052574;28;20250;-62
2023/11/07 02:59:47;;;;;;;3.30;1.17;;;17.30;52.80;;;;;;5052179;28;20274;-58
2023/11/07 03:02:15;;;;;;;1.92;1.00;;;17.30;52.80;;;;;;5052096;28;20223;-61
2023/11/07 03:04:42;;;;;;;2.50;1.33;;;17.30;52.80;;;;;;5052774;28;20210;-58
2023/11/07 03:07:09;;;;;;;3.90;1.08;;;17.30;52.80;;;;;;5051796;28;20306;-58
2023/11/07 03:09:36;;;;;;;4.00;1.40;;;17.30;52.80;;;;;;5052463;28;20184;-58
2023/11/07 03:12:03;;;;;;;4.50;1.17;;;17.30;52.80;;;;;;5052004;28;20188;-57
2023/11/07 03:14:32;;;;;;;3.03;1.10;;;17.40;52.90;;;;;;5051854;28;20593;-59
2023/11/07 03:17:00;;;;;;;3.15;0.95;;;17.30;52.80;;;;;;5052266;28;20270;-61
2023/11/07 03:19:27;;;;;;;3.88;1.10;;;17.30;52.80;;;;;;5052355;28;20188;-59
2023/11/07 03:21:54;;;;;;;2.40;0.95;;;17.30;52.80;;;;;;5051792;28;20267;-60
2023/11/07 03:24:21;;;;;;;3.63;1.08;;;17.30;52.80;;;;;;5052244;28;20188;-57
2023/11/07 03:26:48;;;;;;;2.38;1.20;;;17.30;52.80;;;;;;5051985;28;20575;-58
2023/11/07 03:29:14;;;;;;;1.88;0.93;;;17.30;52.80;;;;;;5052098;28;20219;-55
2023/11/07 03:31:43;;;;;;;3.53;1.48;;;17.30;52.80;;;;;;5052168;28;20210;-59
2023/11/07 03:34:11;;;;;;;4.05;0.93;;;17.30;52.80;;;;;;5051695;28;20273;-60
2023/11/07 03:36:39;;;;;;;3.15;1.00;;;17.30;52.70;;;;;;5054369;28;20283;-55
2023/11/07 03:39:06;;;;;;;4.30;0.98;;;17.30;52.80;;;;;;5056515;28;20219;-58
2023/11/07 03:41:33;;;;;;;2.45;1.20;;;17.30;52.70;;;;;;5056131;28;20219;-58
2023/11/07 03:44:00;;;;;;;3.78;1.15;;;17.30;52.70;;;;;;5055822;28;20219;-56
2023/11/07 03:46:27;;;;;;;2.80;1.15;;;17.30;52.70;;;;;;5056136;28;20290;-60
2023/11/07 03:48:54;;;;;;;5.38;1.15;;;17.30;52.70;;;;;;5055971;28;20241;-60
2023/11/07 03:51:22;;;;;;;2.70;1.13;;;17.30;52.70;;;;;;5055592;28;20632;-60
2023/11/07 03:53:49;;;;;;;3.60;1.10;;;17.30;52.70;;;;;;5055948;28;20215;-59
2023/11/07 03:56:16;;;;;;;2.45;1.00;;;17.30;52.70;;;;;;5055857;28;20219;-56
2023/11/07 03:58:44;;;;;;;3.22;1.30;;;17.30;52.70;;;;;;5055922;28;20226;-60
2023/11/07 04:01:11;;;;;;;4.85;1.40;;;17.30;52.70;;;;;;5055628;28;20196;-59
2023/11/07 04:03:37;;;;;;;4.57;1.10;;;17.30;52.70;;;;;;5055188;28;20285;-58
2023/11/07 04:06:05;;;;;;;3.35;1.20;;;17.30;52.70;;;;;;5055651;28;20202;-59
2023/11/07 04:08:34;;;;;;;4.55;1.23;;;17.20;52.60;;;;;;5053744;28;20311;-59
2023/11/07 04:11:01;;;;;;;2.22;1.48;;;17.30;52.60;;;;;;5055467;28;20226;-60
2023/11/07 04:13:29;;;;;;;2.45;1.15;;;17.30;52.70;;;;;;5055281;28;20215;-61
2023/11/07 04:15:57;;;;;;;4.53;1.30;;;17.30;52.70;;;;;;5055286;28;20234;-59
2023/11/07 04:18:24;;;;;;;3.45;1.10;;;17.30;52.70;;;;;;5055571;28;20223;-55
2023/11/07 04:20:51;;;;;;;8.02;1.45;;;17.30;52.60;;;;;;5055376;28;20271;-56
2023/11/07 04:23:19;;;;;;;2.30;1.05;;;17.20;52.50;;;;;;5055032;28;20215;-60
2023/11/07 04:25:50;;;;;;;5.10;1.42;;;17.30;52.60;;;;;;5055385;28;20187;-59
2023/11/07 04:28:17;;;;;;;3.30;1.10;;;17.30;52.70;;;;;;5055068;28;20215;-60
2023/11/07 04:30:44;;;;;;;2.97;0.98;;;17.30;52.70;;;;;;5055013;28;20226;-58
2023/11/07 04:33:11;;;;;;;2.83;1.10;;;17.30;52.70;;;;;;5055134;28;20223;-59
2023/11/07 04:35:41;;;;;;;4.85;1.42;;;17.20;52.60;;;;;;5055017;28;20219;-59
2023/11/07 04:38:08;;;;;;;5.50;1.42;;;17.20;52.60;;;;;;5054651;28;20212;-59
2023/11/07 04:40:35;;;;;;;4.60;1.08;;;17.20;52.50;;;;;;5055068;28;20226;-58
2023/11/07 04:43:04;;;;;;;4.32;1.17;;;17.20;52.50;;;;;;5055095;28;20215;-55
2023/11/07 04:45:31;;;;;;;2.10;1.00;;;17.30;52.60;;;;;;5054635;28;20278;-59
2023/11/07 04:47:58;;;;;;;3.30;1.10;;;17.20;52.60;;;;;;5054208;28;20211;-59
2023/11/07 04:50:26;;;;;;;3.13;1.20;;;17.20;52.50;;;;;;5054620;28;20560;-57
2023/11/07 04:52:54;;;;;;;2.38;1.08;;;17.20;52.50;;;;;;5054546;28;20294;-59
2023/11/07 04:55:22;;;;;;;3.50;1.10;;;17.20;52.50;;;;;;5054775;28;20216;-60
2023/11/07 04:57:50;;;;;;;3.53;1.20;;;17.20;52.50;;;;;;5054749;28;20227;-58
2023/11/07 05:00:19;;;;;;;4.15;1.38;;;17.20;52.50;;;;;;5054381;28;20217;-60
2023/11/07 05:02:46;;;;;;;3.28;1.30;;;17.20;52.50;;;;;;5054342;28;20321;-61
2023/11/07 05:05:14;;;;;;;2.47;1.00;;;17.20;52.50;;;;;;5054896;28;20203;-57
2023/11/07 05:07:41;;;;;;;3.90;1.30;;;17.20;52.50;;;;;;5054278;28;20211;-59
2023/11/07 05:10:10;;;;;;;3.47;1.30;;;17.20;52.50;;;;;;5054454;28;20270;-60
2023/11/07 05:12:37;;;;;;;4.28;1.10;;;17.20;52.50;;;;;;5054436;28;20222;-59
2023/11/07 05:15:07;;;;;;;4.97;1.50;;;17.20;52.50;;;;;;5053723;28;20214;-59
2023/11/07 05:17:35;;;;;;;3.35;1.25;;;17.20;52.50;;;;;;5054380;28;20219;-58
2023/11/07 05:20:07;;;;;;;5.28;1.23;;;17.20;52.50;;;;;;5054111;28;20208;-60
2023/11/07 05:22:34;;;;;;;3.63;1.27;;;17.20;52.50;;;;;;5053677;28;20211;-59
2023/11/07 05:25:01;;;;;;;3.13;1.33;;;17.20;52.40;;;;;;5053951;28;20192;-56
2023/11/07 05:27:28;;;;;;;4.38;1.30;;;17.20;52.50;;;;;;5054160;28;20226;-59
2023/11/07 05:29:55;;;;;;;3.42;1.15;;;17.20;53.10;;;;;;5053854;28;20192;-59
2023/11/07 05:32:22;;;;;;;3.83;1.10;;;17.20;52.50;;;;;;5053671;28;20184;-59
2023/11/07 05:34:50;;;;;;;3.17;1.17;;;17.20;52.40;;;;;;5053981;28;20216;-59
2023/11/07 05:37:17;;;;;;;4.13;1.38;;;17.20;52.50;;;;;;5053654;28;20191;-60
2023/11/07 05:39:45;;;;;;;4.05;1.30;;;17.20;52.50;;;;;;5054273;28;20187;-59
2023/11/07 05:42:12;;;;;;;4.40;1.40;;;17.20;52.60;;;;;;5053784;28;20192;-58
2023/11/07 05:44:39;;;;;;;3.38;1.25;;;17.20;52.50;;;;;;5053536;28;20284;-59
2023/11/07 05:47:07;;;;;;;2.28;1.10;;;17.30;52.50;;;;;;5053866;28;20253;-58
2023/11/07 05:49:35;;;;;;;3.88;1.23;;;17.40;52.50;;;;;;5054001;28;20220;-59
2023/11/07 05:52:04;;;;;;;2.30;1.15;;;17.50;52.40;;;;;;5053015;28;20279;-59
2023/11/07 05:54:31;;;;;;;2.90;1.27;;;17.60;52.30;;;;;;5053607;28;20720;-56
2023/11/07 05:56:58;;;;;;;2.20;1.20;;;17.60;52.10;;;;;;5053498;28;20311;-59
2023/11/07 05:59:26;;;;;;;4.82;1.17;;;17.70;52.10;;;;;;5053437;28;20289;-58
2023/11/07 06:01:54;;;;;;;4.25;1.38;;;17.80;52.00;;;;;;5053189;28;20314;-60
2023/11/07 06:04:31;;;;;;;1.88;1.20;;;17.80;51.80;;;;;;5053661;28;20585;-58
2023/11/07 06:06:59;;;;;;;6.35;1.20;;;17.90;51.70;;;;;;5053173;28;20787;-59
2023/11/07 06:09:28;;;;;;;2.05;0.82;;;18.00;51.60;;;;;;5053448;28;20227;-58
2023/11/07 06:11:55;;;;;;;4.28;1.30;;;18.10;51.60;;;;;;5052948;28;20654;-59
2023/11/07 06:14:22;;;;;;;2.58;1.02;;;18.20;51.40;;;;;;5053092;28;20226;-59
2023/11/07 06:16:49;;;;;;;3.45;1.25;;;18.30;51.30;;;;;;5053233;28;20225;-60
2023/11/07 06:19:16;;;;;;;2.80;1.10;;;18.30;51.10;;;;;;5053350;28;20222;-59
2023/11/07 06:21:43;;;;;;;2.85;0.90;;;18.40;51.10;;;;;;5052818;28;20198;-60
2023/11/07 06:24:10;;;;;;;4.30;1.38;;;18.40;51.00;;;;;;5053323;28;20223;-59
2023/11/07 06:26:39;;;;;;;4.95;1.42;;;18.40;50.80;;;;;;5053046;28;20271;-60
2023/11/07 06:29:05;;;;;;;3.05;1.17;;;18.40;50.80;;;;;;5052555;28;20594;-58
2023/11/07 06:31:32;;;;;;;4.45;1.20;;;18.40;50.80;;;;;;5052923;28;20214;-60
2023/11/07 06:34:00;;;;;;;3.83;1.52;;;18.40;50.80;;;;;;5052580;28;20693;-59
2023/11/07 06:36:27;;;;;;;4.43;1.38;;;18.40;50.80;;;;;;5052569;28;20306;-59
2023/11/07 06:38:55;;;;;;;2.55;1.00;;;18.40;50.80;;;;;;5053016;28;20302;-60
2023/11/07 06:41:22;;;;;;;3.28;1.30;;;18.30;50.70;;;;;;5052801;28;20191;-60
2023/11/07 06:43:50;;;;;;;4.63;1.13;;;18.30;50.80;;;;;;5052267;28;20251;-58
2023/11/07 06:46:18;;;;;;;3.47;1.33;;;18.30;50.80;;;;;;5052442;28;20685;-58
2023/11/07 06:48:46;;;;;;;4.05;1.20;;;18.20;50.80;;;;;;5052823;28;20215;-61
2023/11/07 06:51:14;;;;;;;4.28;1.00;;;18.20;50.80;;;;;;5052008;28;20660;-60
2023/11/07 06:53:42;;;;;;;6.07;1.75;;;18.20;50.90;;;;;;5052417;28;20219;-60
2023/11/07 06:56:09;;;;;;;3.97;1.20;;;18.10;50.80;;;;;;5052264;28;20745;-60
2023/11/07 06:58:36;;;;;;;3.38;1.23;;;18.10;50.90;;;;;;5052073;28;20212;-61
2023/11/07 07:01:05;;;;;;;5.18;1.33;;;18.10;51.00;;;;;;5052547;28;20203;-60
2023/11/07 07:03:33;;;;;;;2.10;1.05;;;18.00;51.00;;;;;;5052093;28;20319;-57
2023/11/07 07:06:00;;;;;;;3.97;1.40;;;18.00;51.00;;;;;;5052103;28;20684;-58
2023/11/07 07:08:27;;;;;;;3.58;1.40;;;18.00;51.20;;;;;;5052570;28;20219;-59
2023/11/07 07:10:54;;;;;;;5.10;1.20;;;18.00;51.20;;;;;;5051957;28;20212;-60
2023/11/07 07:13:24;;;;;;;2.78;1.08;;;18.00;51.30;;;;;;5051736;28;20219;-59
2023/11/07 07:15:51;;;;;;;6.03;1.38;;;18.00;51.20;;;;;;5052287;28;20220;-60
2023/11/07 07:18:22;;;;;;;3.63;1.08;;;18.10;51.30;;;;;;5052040;28;20302;-60
2023/11/07 07:20:53;;;;;;;4.22;1.58;;;18.10;51.30;;;;;;5051673;28;20192;-59
2023/11/07 07:23:24;;;;;;;1.88;1.02;;;18.10;51.20;;;;;;5052008;28;20216;-59
2023/11/07 07:25:52;;;;;;;3.08;1.20;;;18.10;51.10;;;;;;5052329;28;20194;-60
2023/11/07 07:28:20;;;;;;;3.75;1.30;;;18.20;51.20;;;;;;5051629;28;20691;-59
2023/11/07 07:30:48;;;;;;;3.13;1.05;;;18.20;51.10;;;;;;5051936;28;20202;-60
2023/11/07 07:33:18;;;;;;;2.95;1.20;;;18.20;51.00;;;;;;5052077;28;20266;-60
2023/11/07 07:35:47;;;;;;;4.43;1.42;;;18.10;50.90;;;;;;5051847;28;20219;-58
2023/11/07 07:38:14;;;;;;;2.85;1.15;;;18.20;51.00;;;;;;5051850;28;20683;-60
2023/11/07 07:40:42;;;;;;;3.50;1.30;;;18.10;51.00;;;;;;5049939;28;20197;-58
2023/11/07 07:43:12;;;;;;;3.80;1.15;;;18.10;51.00;;;;;;5047635;28;20227;-57
2023/11/07 07:45:42;;;;;;;4.00;1.08;;;18.10;51.00;;;;;;5051439;28;20283;-60
2023/11/07 07:48:09;;;;;;;3.88;1.30;;;18.10;51.00;;;;;;5050995;28;20215;-59
2023/11/07 07:50:41;;;;;;;4.57;1.67;;;18.10;50.90;;;;;;5064866;28;20187;-60
2023/11/07 07:53:10;;;;;;;7.28;1.50;;;18.20;51.00;;;;;;5071115;28;20276;-60
2023/11/07 07:55:43;;;;;;;2.80;1.40;;;18.20;51.00;;;;;;5070924;28;20183;-56
2023/11/07 07:58:11;;;;;;;4.00;1.40;;;18.20;51.00;;;;;;5047975;28;20701;-59
2023/11/07 08:00:39;;;;;;;2.53;1.25;;;18.30;51.10;;;;;;5050531;28;20199;-60
2023/11/07 08:03:08;;;;;;;3.92;1.23;;;18.30;51.00;;;;;;5053958;28;20713;-60
2023/11/07 08:05:44;;;;;;;5.85;1.10;;;18.40;51.00;;;;;;5063192;28;20226;-57
2023/11/07 08:08:38;;;;;;;5.32;1.65;;;18.50;51.00;;;;;;5060848;28;20767;-57
2023/11/07 08:11:10;;;;;;;2.80;1.27;;;18.50;50.80;;;;;;5063019;28;20221;-62
2023/11/07 08:13:39;;;;;;;3.30;1.27;;;18.60;50.70;;;;;;5029671;28;20240;-60
2023/11/07 08:16:08;;;;;;;3.63;1.35;;;18.60;50.70;;;;;;5032522;28;20215;-61
2023/11/07 08:18:37;;;;;;;4.05;1.15;;;18.70;50.80;;;;;;5068553;28;20221;-60
2023/11/07 08:21:07;;;;;;;2.67;1.20;;;18.70;50.80;;;;;;5068862;28;20752;-61
2023/11/07 08:23:44;;;;;;;3.67;1.25;;;18.70;51.50;;;;;;5037754;28;20210;-57
2023/11/07 08:26:17;;;;;;;2.85;1.30;;;18.70;50.90;;;;;;5065464;28;20199;-60
2023/11/07 08:28:51;;;;;;;5.60;1.30;;;18.70;50.90;;;;;;5072188;28;20217;-60
2023/11/07 08:31:22;;;;;;;3.38;1.33;;;18.70;51.00;;;;;;5023401;28;20273;-60
2023/11/07 08:33:51;;;;;;;6.60;1.30;;;18.80;51.20;;;;;;5071805;28;20252;-61
2023/11/07 08:36:19;;;;;;;7.20;1.52;;;18.80;52.30;;;;;;5063693;28;20218;-60
2023/11/07 08:38:54;;;;;;;6.15;1.58;;;18.80;52.60;;;;;;5019380;28;20243;-60
2023/11/07 08:41:23;;;;;;;3.70;1.27;;;18.80;53.10;;;;;;5061165;28;20202;-60
2023/11/07 08:43:52;;;;;;;5.95;1.40;;;18.80;53.30;;;;;;5000300;28;20944;-61
2023/11/07 08:46:23;;;;;;;3.85;1.42;;;18.80;54.50;;;;;;5068817;28;20226;-60
2023/11/07 08:48:53;;;;;;;4.30;1.30;;;18.80;53.70;;;;;;5050224;28;20219;-61
2023/11/07 08:51:24;;;;;;;5.95;1.27;;;18.80;53.40;;;;;;5034417;28;20191;-60
2023/11/07 08:54:04;;;;;;;4.85;1.38;;;18.80;53.00;;;;;;5068839;28;20277;-58
2023/11/07 08:59:18;;;;;;;3.65;1.75;;;19.00;54.00;;;;;;5068872;28;20221;-60
2023/11/07 09:01:47;;;;;;;3.65;1.40;;;19.10;53.20;;;;;;5066075;28;20231;-61
2023/11/07 09:04:17;;;;;;;3.10;1.35;;;19.20;53.00;;;;;;5072916;28;20310;-58
2023/11/07 09:06:48;;;;;;;5.60;1.23;;;19.20;52.80;;;;;;5034197;28;20195;-60
2023/11/07 09:09:23;;;;;;;5.82;1.20;;;19.20;52.90;;;;;;5035956;28;20705;-60
2023/11/07 09:11:54;;;;;;;4.72;1.23;;;19.30;52.80;;;;;;5021342;28;20199;-59
2023/11/07 09:14:25;;;;;;;8.27;1.70;;;19.30;52.70;;;;;;5007315;28;20599;-61
2023/11/07 09:16:52;;;;;;;3.13;1.13;;;19.30;52.70;;;;;;5028653;28;20228;-59
2023/11/07 09:19:25;;;;;;;13.18;1.40;;;19.30;52.70;;;;;;5013540;28;20314;-61
2023/11/07 09:21:56;;;;;;;4.85;1.10;;;19.40;52.80;;;;;;5027584;28;20283;-60
2023/11/07 09:24:32;;;;;;;7.25;1.08;;;19.40;52.80;;;;;;4997284;28;20220;-60
2023/11/07 09:27:05;;;;;;;3.85;1.20;;;19.30;52.70;;;;;;5029800;28;20238;-58
2023/11/07 09:29:34;;;;;;;6.55;1.15;;;19.30;52.70;;;;;;5044731;28;20215;-59
2023/11/07 09:34:55;;;;;;;3.60;1.30;;;19.30;51.90;;;;;;5070807;28;20218;-59
2023/11/07 09:37:24;;;;;;;4.90;1.10;;;19.30;51.90;;;;;;5068124;28;20630;-58
2023/11/07 09:39:56;;;;;;;2.63;1.10;;;19.30;51.90;;;;;;4998537;28;20221;-60
2023/11/07 09:42:26;;;;;;;7.20;1.23;;;19.30;51.50;;;;;;5012880;28;20208;-59
2023/11/07 09:44:56;;;;;;;5.32;1.10;;;19.40;51.60;;;;;;5029340;28;20278;-53
2023/11/07 09:47:28;;;;;;;2.83;1.10;;;19.40;51.40;;;;;;5029094;28;20188;-54
2023/11/07 09:49:56;;;;;;;3.55;1.48;;;19.40;51.30;;;;;;5028890;28;20248;-56
2023/11/07 09:52:24;;;;;;;3.92;1.20;;;19.40;51.20;;;;;;5028742;28;20196;-56
2023/11/07 09:54:56;;;;;;;6.13;1.33;;;19.40;51.20;;;;;;4945836;28;20840;-58
2023/11/07 09:57:25;;;;;;;3.83;1.20;;;19.40;51.20;;;;;;4991793;28;20231;-57
2023/11/07 09:59:54;;;;;;;5.15;1.00;;;19.40;51.10;;;;;;5036551;28;20249;-59
2023/11/07 10:02:24;;;;;;;3.60;1.15;;;19.30;51.00;;;;;;5067985;28;20309;-58
2023/11/07 10:04:57;;;;;;;3.90;0.93;;;19.30;51.20;;;;;;5071465;28;20215;-57
2023/11/07 10:07:26;;;;;;;3.45;1.20;;;19.40;51.20;;;;;;5069212;28;20193;-60
2023/11/07 10:10:05;;;;;;;4.63;1.35;;;19.30;51.10;;;;;;5069390;28;20230;-59
2023/11/07 10:12:42;;;;;;;5.20;1.25;;;19.40;51.20;;;;;;5069609;28;20211;-58
2023/11/07 10:15:19;;;;;;;3.50;1.25;;;19.40;51.20;;;;;;5071568;28;20214;-58
2023/11/07 10:17:58;;;;;;;5.97;1.30;;;19.40;51.00;;;;;;5034909;28;20588;-56
2023/11/07 10:20:29;;;;;;;3.92;1.30;;;19.40;51.30;;;;;;5070992;28;20217;-57
2023/11/07 10:22:59;;;;;;;4.65;1.30;;;19.40;51.70;;;;;;5070900;28;20277;-59
2023/11/07 10:25:38;;;;;;;5.05;1.33;;;19.40;51.90;;;;;;5020504;28;20229;-52
2023/11/07 10:28:08;;;;;;;9.98;1.75;;;19.40;51.40;;;;;;5055200;28;20226;-58
2023/11/07 10:30:42;;;;;;;4.80;1.30;;;19.40;52.00;;;;;;5033043;28;20764;-56
2023/11/07 10:33:27;;;;;;;3.80;1.38;;;19.40;51.00;;;;;;5057642;28;20195;-59
2023/11/07 10:35:59;;;;;;;8.63;1.52;;;19.40;51.00;;;;;;4995736;28;20205;-52
2023/11/07 10:38:32;;;;;;;3.45;1.10;;;19.40;50.90;;;;;;5027977;28;20947;-59
2023/11/07 10:41:04;;;;;;;5.20;1.48;;;19.50;50.90;;;;;;4991362;28;20726;-51
2023/11/07 10:43:34;;;;;;;3.28;1.05;;;19.50;50.90;;;;;;4995512;28;20220;-57
2023/11/07 10:46:12;;;;;;;7.60;1.20;;;19.50;50.70;;;;;;5016695;28;20189;-58
2023/11/07 10:48:41;;;;;;;5.18;1.20;;;19.60;50.60;;;;;;5006500;28;20203;-57
2023/11/07 10:51:35;;;;;;;7.13;1.13;;;19.60;50.60;;;;;;4960338;28;20228;-59
2023/11/07 10:54:06;;;;;;;4.47;1.23;;;19.60;50.60;;;;;;5021742;28;20192;-57
2023/11/07 10:56:40;;;;;;;9.23;1.45;;;19.60;50.60;;;;;;5020390;28;20224;-57
2023/11/07 10:59:24;;;;;;;2.53;1.08;;;19.60;50.60;;;;;;5019951;28;20681;-56
2023/11/07 11:01:55;;;;;;;6.93;1.25;;;19.60;50.40;;;;;;4991064;28;20235;-58
2023/11/07 11:04:24;;;;;;;2.58;1.00;;;19.60;50.40;;;;;;5021322;28;20326;-58
2023/11/07 11:06:57;;;;;;;5.05;1.25;;;19.50;50.40;;;;;;4981631;28;20248;-57
2023/11/07 11:09:29;;;;;;;3.70;1.17;;;19.50;50.50;;;;;;4973973;28;20213;-59
2023/11/07 11:12:08;;;;;;;5.95;1.10;;;19.50;50.50;;;;;;4976648;28;20209;-57
2023/11/07 11:14:38;;;;;;;8.57;1.27;;;19.50;50.50;;;;;;4987548;28;20201;-58
2023/11/07 11:17:13;;;;;;;4.70;1.55;;;19.50;50.50;;;;;;4986242;28;20773;-59
2023/11/07 11:19:56;;;;;;;3.03;1.08;;;19.50;50.50;;;;;;5003644;28;20200;-55
2023/11/07 11:22:34;;;;;;;3.20;1.20;;;19.60;50.60;;;;;;4980548;28;20220;-58
2023/11/07 11:25:15;;;;;;;5.20;1.25;;;19.60;50.60;;;;;;5026639;28;20575;-58
2023/11/07 11:27:49;;;;;;;3.25;1.20;;;19.60;50.50;;;;;;5027546;28;20204;-55
2023/11/07 11:30:18;;;;;;;6.60;1.30;;;19.60;50.40;;;;;;5009945;28;20223;-56
2023/11/07 11:33:06;;;;;;;4.22;1.42;;;19.60;50.40;;;;;;4977720;28;20215;-60
2023/11/07 11:35:38;;;;;;;2.35;0.95;;;19.50;50.30;;;;;;5022773;28;20227;-59
2023/11/07 11:38:15;;;;;;;4.15;1.30;;;19.50;50.40;;;;;;5048237;28;20777;-58
2023/11/07 11:41:01;;;;;;;3.13;1.23;;;19.50;50.50;;;;;;5067881;28;20324;-54
2023/11/07 11:43:31;;;;;;;5.53;1.08;;;19.40;50.40;;;;;;5050484;28;20226;-58
2023/11/07 11:46:37;;;;;;;3.75;1.10;;;19.30;50.30;;;;;;5067610;28;20233;-56
2023/11/07 11:49:08;;;;;;;3.53;1.00;;;19.30;50.40;;;;;;5048990;28;20288;-57
2023/11/07 11:51:38;;;;;;;3.22;1.15;;;19.30;50.60;;;;;;5033612;28;20218;-60
2023/11/07 11:54:16;;;;;;;3.65;1.20;;;19.30;50.50;;;;;;5048140;28;20246;-57
2023/11/07 11:57:04;;;;;;;2.92;1.10;;;19.20;50.50;;;;;;5035763;28;20237;-59
2023/11/07 11:59:56;;;;;;;3.47;1.08;;;19.20;50.40;;;;;;5060658;28;20249;-59
2023/11/07 12:02:39;;;;;;;2.38;1.10;;;19.30;50.70;;;;;;5066392;28;20575;-59
2023/11/07 12:05:22;;;;;;;3.55;1.08;;;19.20;50.60;;;;;;5074149;28;20191;-59
2023/11/07 12:07:49;;;;;;;2.63;1.10;;;19.20;50.60;;;;;;5072068;28;20199;-58
2023/11/07 12:10:20;;;;;;;4.93;1.60;;;19.20;51.30;;;;;;5073784;28;20269;-60
2023/11/07 12:12:57;;;;;;;3.20;1.30;;;19.30;50.70;;;;;;5072316;28;20286;-59
2023/11/07 12:15:27;;;;;;;5.72;1.45;;;19.20;50.60;;;;;;5073473;28;20191;-60
2023/11/07 12:17:54;;;;;;;3.03;1.30;;;19.30;50.70;;;;;;5072327;28;20214;-62
2023/11/07 12:20:22;;;;;;;2.17;1.08;;;19.30;50.60;;;;;;5073972;28;20190;-59
2023/11/07 12:22:51;;;;;;;3.97;1.02;;;19.30;50.40;;;;;;5071325;28;20245;-60
2023/11/07 12:25:19;;;;;;;3.53;1.13;;;19.30;50.40;;;;;;5073370;28;20645;-59
2023/11/07 12:28:02;;;;;;;3.30;1.13;;;19.30;50.40;;;;;;5072018;28;20220;-60
2023/11/07 12:30:31;;;;;;;4.30;0.90;;;19.30;50.50;;;;;;5073150;28;20213;-55
2023/11/07 12:33:00;;;;;;;5.85;1.25;;;19.30;50.60;;;;;;5072269;28;20281;-60
2023/11/07 12:35:29;;;;;;;2.35;1.10;;;19.30;50.70;;;;;;5071680;28;20640;-57
2023/11/07 12:37:58;;;;;;;3.35;1.20;;;19.30;50.60;;;;;;5071299;28;20219;-57
2023/11/07 12:40:25;;;;;;;3.50;0.90;;;19.30;50.50;;;;;;5073289;28;20266;-57
2023/11/07 12:42:53;;;;;;;4.75;1.20;;;19.40;50.40;;;;;;5072709;28;20274;-59
2023/11/07 12:45:27;;;;;;;4.82;1.20;;;19.40;50.40;;;;;;5071676;28;20191;-59
2023/11/07 12:47:59;;;;;;;4.63;1.10;;;19.40;50.40;;;;;;5073181;28;20310;-60
2023/11/07 12:50:30;;;;;;;3.47;1.33;;;19.40;50.40;;;;;;5070132;28;20187;-57
2023/11/07 12:52:58;;;;;;;3.42;1.30;;;19.30;50.40;;;;;;5062045;28;20223;-59
2023/11/07 12:55:28;;;;;;;3.58;1.10;;;19.30;50.40;;;;;;5063405;28;20738;-58
2023/11/07 12:57:56;;;;;;;4.40;1.30;;;19.30;50.50;;;;;;5060151;28;20295;-57
2023/11/07 13:00:25;;;;;;;3.05;0.98;;;19.30;50.70;;;;;;5068765;28;20222;-57
2023/11/07 13:02:56;;;;;;;3.97;1.30;;;19.30;50.70;;;;;;5067940;28;20238;-59
2023/11/07 13:05:24;;;;;;;2.75;1.00;;;19.30;50.70;;;;;;5065124;28;20202;-60
2023/11/07 13:07:52;;;;;;;5.85;1.30;;;19.30;50.70;;;;;;5066229;28;20305;-60